sensor_id;sensor_type;location;lat;lon;timestamp;temperature;humidity
38860;DHT22;24609;48.316;16.174;2023-11-21T00:01:02;6.30;36.70
38860;DHT22;24609;48.316;16.174;2023-11-21T00:03:32;6.20;99.90
38860;DHT22;24609;48.316;16.174;2023-11-21T00:05:58;6.10;40.90
38860;DHT22;24609;48.316;16.174;2023-11-21T00:08:24;5.90;96.90
38860;DHT22;24609;48.316;16.174;2023-11-21T00:10:49;5.70;99.90
38860;DHT22;24609;48.316;16.174;2023-11-21T00:13:16;5.50;99.90
38860;DHT22;24609;48.316;16.174;2023-11-21T00:15:42;5.40;99.90
38860;DHT22;24609;48.316;16.174;2023-11-21T00:18:07;5.60;99.90
38860;DHT22;24609;48.316;16.174;2023-11-21T00:20:33;5.60;99.90
38860;DHT22;24609;48.316;16.174;2023-11-21T00:22:59;5.70;99.90
38860;DHT22;24609;48.316;16.174;2023-11-21T00:25:27;5.60;99.90
38860;DHT22;24609;48.316;16.174;2023-11-21T00:27:53;5.40;99.90
38860;DHT22;24609;48.316;16.174;2023-11-21T00:30:19;5.30;99.90
38860;DHT22;24609;48.316;16.174;2023-11-21T00:32:46;5.10;99.90
38860;DHT22;24609;48.316;16.174;2023-11-21T00:35:12;4.90;99.90
38860;DHT22;24609;48.316;16.174;2023-11-21T00:37:37;4.80;99.90
38860;DHT22;24609;48.316;16.174;2023-11-21T00:40:04;4.70;99.90
38860;DHT22;24609;48.316;16.174;2023-11-21T00:42:31;4.60;99.90
38860;DHT22;24609;48.316;16.174;2023-11-21T00:44:59;4.60;99.90
38860;DHT22;24609;48.316;16.174;2023-11-21T00:47:25;4.70;99.90
38860;DHT22;24609;48.316;16.174;2023-11-21T00:49:51;4.80;99.90
38860;DHT22;24609;48.316;16.174;2023-11-21T00:52:16;4.70;99.90
38860;DHT22;24609;48.316;16.174;2023-11-21T00:54:42;4.70;99.90
38860;DHT22;24609;48.316;16.174;2023-11-21T00:57:08;4.60;99.90
38860;DHT22;24609;48.316;16.174;2023-11-21T00:59:34;4.50;99.90
38860;DHT22;24609;48.316;16.174;2023-11-21T01:02:00;4.40;99.90
38860;DHT22;24609;48.316;16.174;2023-11-21T01:04:27;4.40;99.90
38860;DHT22;24609;48.316;16.174;2023-11-21T01:06:53;4.40;99.90
38860;DHT22;24609;48.316;16.174;2023-11-21T01:09:18;4.40;99.90
38860;DHT22;24609;48.316;16.174;2023-11-21T01:11:44;4.40;99.90
38860;DHT22;24609;48.316;16.174;2023-11-21T01:14:10;4.30;99.90
38860;DHT22;24609;48.316;16.174;2023-11-21T01:16:36;4.30;99.90
38860;DHT22;24609;48.316;16.174;2023-11-21T01:19:02;4.30;99.90
38860;DHT22;24609;48.316;16.174;2023-11-21T01:21:27;4.30;99.90
38860;DHT22;24609;48.316;16.174;2023-11-21T01:23:53;4.30;99.90
38860;DHT22;24609;48.316;16.174;2023-11-21T01:26:20;4.40;99.90
38860;DHT22;24609;48.316;16.174;2023-11-21T01:28:46;4.50;99.90
38860;DHT22;24609;48.316;16.174;2023-11-21T01:31:14;4.60;99.90
38860;DHT22;24609;48.316;16.174;2023-11-21T01:33:40;4.70;99.90
38860;DHT22;24609;48.316;16.174;2023-11-21T01:36:06;4.70;99.90
38860;DHT22;24609;48.316;16.174;2023-11-21T01:38:32;4.80;99.90
38860;DHT22;24609;48.316;16.174;2023-11-21T01:40:57;5.00;99.90
38860;DHT22;24609;48.316;16.174;2023-11-21T01:43:29;5.00;99.90
38860;DHT22;24609;48.316;16.174;2023-11-21T01:45:55;5.00;99.90
38860;DHT22;24609;48.316;16.174;2023-11-21T01:48:24;5.10;99.90
38860;DHT22;24609;48.316;16.174;2023-11-21T01:50:51;5.20;99.90
38860;DHT22;24609;48.316;16.174;2023-11-21T01:53:17;5.10;99.90
38860;DHT22;24609;48.316;16.174;2023-11-21T01:55:45;5.10;99.90
38860;DHT22;24609;48.316;16.174;2023-11-21T01:58:12;4.80;99.90
38860;DHT22;24609;48.316;16.174;2023-11-21T02:00:41;4.70;99.90
38860;DHT22;24609;48.316;16.174;2023-11-21T02:03:07;4.70;99.90
38860;DHT22;24609;48.316;16.174;2023-11-21T02:05:33;4.60;99.90
38860;DHT22;24609;48.316;16.174;2023-11-21T02:07:59;4.70;99.90
38860;DHT22;24609;48.316;16.174;2023-11-21T02:10:26;4.70;99.90
38860;DHT22;24609;48.316;16.174;2023-11-21T02:12:51;4.50;99.90
38860;DHT22;24609;48.316;16.174;2023-11-21T02:15:18;4.40;99.90
38860;DHT22;24609;48.316;16.174;2023-11-21T02:17:47;4.30;99.90
38860;DHT22;24609;48.316;16.174;2023-11-21T02:20:17;4.20;99.90
38860;DHT22;24609;48.316;16.174;2023-11-21T02:22:43;4.10;99.90
38860;DHT22;24609;48.316;16.174;2023-11-21T02:25:10;4.10;99.90
38860;DHT22;24609;48.316;16.174;2023-11-21T02:27:36;4.00;99.90
38860;DHT22;24609;48.316;16.174;2023-11-21T02:30:03;3.90;99.90
38860;DHT22;24609;48.316;16.174;2023-11-21T02:32:30;3.70;99.90
38860;DHT22;24609;48.316;16.174;2023-11-21T02:34:57;3.70;99.90
38860;DHT22;24609;48.316;16.174;2023-11-21T02:37:26;3.60;99.90
38860;DHT22;24609;48.316;16.174;2023-11-21T02:39:52;3.70;99.90
38860;DHT22;24609;48.316;16.174;2023-11-21T02:42:18;3.70;99.90
38860;DHT22;24609;48.316;16.174;2023-11-21T02:44:44;3.80;99.90
38860;DHT22;24609;48.316;16.174;2023-11-21T02:47:10;3.80;99.90
38860;DHT22;24609;48.316;16.174;2023-11-21T02:49:35;3.70;99.90
38860;DHT22;24609;48.316;16.174;2023-11-21T02:52:01;3.60;99.90
38860;DHT22;24609;48.316;16.174;2023-11-21T02:54:27;3.50;99.90
38860;DHT22;24609;48.316;16.174;2023-11-21T02:56:53;3.50;99.90
38860;DHT22;24609;48.316;16.174;2023-11-21T02:59:18;3.40;99.90
38860;DHT22;24609;48.316;16.174;2023-11-21T03:01:45;3.30;99.90
38860;DHT22;24609;48.316;16.174;2023-11-21T03:04:11;3.30;99.90
38860;DHT22;24609;48.316;16.174;2023-11-21T03:06:43;3.20;99.90
38860;DHT22;24609;48.316;16.174;2023-11-21T03:09:09;3.10;99.90
38860;DHT22;24609;48.316;16.174;2023-11-21T03:11:35;3.00;99.90
38860;DHT22;24609;48.316;16.174;2023-11-21T03:14:00;3.00;99.90
38860;DHT22;24609;48.316;16.174;2023-11-21T03:16:26;3.20;99.90
38860;DHT22;24609;48.316;16.174;2023-11-21T03:18:52;3.40;99.90
38860;DHT22;24609;48.316;16.174;2023-11-21T03:21:17;3.30;99.90
38860;DHT22;24609;48.316;16.174;2023-11-21T03:23:44;3.30;99.90
38860;DHT22;24609;48.316;16.174;2023-11-21T03:26:13;3.10;99.90
38860;DHT22;24609;48.316;16.174;2023-11-21T03:28:39;3.00;99.90
38860;DHT22;24609;48.316;16.174;2023-11-21T03:31:05;2.90;99.90
38860;DHT22;24609;48.316;16.174;2023-11-21T03:33:32;2.80;99.90
38860;DHT22;24609;48.316;16.174;2023-11-21T03:35:57;2.90;99.90
38860;DHT22;24609;48.316;16.174;2023-11-21T03:38:23;3.00;99.90
38860;DHT22;24609;48.316;16.174;2023-11-21T03:40:49;3.00;99.90
38860;DHT22;24609;48.316;16.174;2023-11-21T03:43:16;3.00;99.90
38860;DHT22;24609;48.316;16.174;2023-11-21T03:45:42;2.90;99.90
38860;DHT22;24609;48.316;16.174;2023-11-21T03:48:08;2.90;99.90
38860;DHT22;24609;48.316;16.174;2023-11-21T03:50:34;2.80;99.90
38860;DHT22;24609;48.316;16.174;2023-11-21T03:53:00;2.80;99.90
38860;DHT22;24609;48.316;16.174;2023-11-21T03:55:26;3.00;99.90
38860;DHT22;24609;48.316;16.174;2023-11-21T03:57:52;3.10;99.90
38860;DHT22;24609;48.316;16.174;2023-11-21T04:00:18;3.20;99.90
38860;DHT22;24609;48.316;16.174;2023-11-21T04:02:45;3.30;99.90
38860;DHT22;24609;48.316;16.174;2023-11-21T04:05:11;3.30;99.90
38860;DHT22;24609;48.316;16.174;2023-11-21T04:07:37;3.30;99.90
38860;DHT22;24609;48.316;16.174;2023-11-21T04:10:05;3.20;99.90
38860;DHT22;24609;48.316;16.174;2023-11-21T04:12:34;3.20;99.90
38860;DHT22;24609;48.316;16.174;2023-11-21T04:15:00;3.10;99.90
38860;DHT22;24609;48.316;16.174;2023-11-21T04:17:25;3.10;99.90
38860;DHT22;24609;48.316;16.174;2023-11-21T04:19:51;3.00;99.90
38860;DHT22;24609;48.316;16.174;2023-11-21T04:22:16;2.90;99.90
38860;DHT22;24609;48.316;16.174;2023-11-21T04:24:42;2.80;99.90
38860;DHT22;24609;48.316;16.174;2023-11-21T04:27:08;2.80;99.90
38860;DHT22;24609;48.316;16.174;2023-11-21T04:29:34;2.80;99.90
38860;DHT22;24609;48.316;16.174;2023-11-21T04:32:01;2.90;99.90
38860;DHT22;24609;48.316;16.174;2023-11-21T04:34:28;2.90;99.90
38860;DHT22;24609;48.316;16.174;2023-11-21T04:36:56;3.00;99.90
38860;DHT22;24609;48.316;16.174;2023-11-21T04:39:22;3.10;99.90
38860;DHT22;24609;48.316;16.174;2023-11-21T04:41:48;3.20;99.90
38860;DHT22;24609;48.316;16.174;2023-11-21T04:44:13;3.20;99.90
38860;DHT22;24609;48.316;16.174;2023-11-21T04:46:41;3.10;99.90
38860;DHT22;24609;48.316;16.174;2023-11-21T04:49:07;3.10;99.90
38860;DHT22;24609;48.316;16.174;2023-11-21T04:51:33;3.00;99.90
38860;DHT22;24609;48.316;16.174;2023-11-21T04:53:59;2.90;99.90
38860;DHT22;24609;48.316;16.174;2023-11-21T04:56:24;2.80;99.90
38860;DHT22;24609;48.316;16.174;2023-11-21T04:58:50;2.80;99.90
38860;DHT22;24609;48.316;16.174;2023-11-21T05:01:16;2.90;99.90
38860;DHT22;24609;48.316;16.174;2023-11-21T05:03:42;3.10;99.90
38860;DHT22;24609;48.316;16.174;2023-11-21T05:06:10;3.40;99.90
38860;DHT22;24609;48.316;16.174;2023-11-21T05:08:36;3.60;99.90
38860;DHT22;24609;48.316;16.174;2023-11-21T05:11:02;3.70;99.90
38860;DHT22;24609;48.316;16.174;2023-11-21T05:13:28;3.70;99.90
38860;DHT22;24609;48.316;16.174;2023-11-21T05:15:57;3.70;99.90
38860;DHT22;24609;48.316;16.174;2023-11-21T05:18:23;3.80;99.90
38860;DHT22;24609;48.316;16.174;2023-11-21T05:20:48;4.00;99.90
38860;DHT22;24609;48.316;16.174;2023-11-21T05:23:15;4.10;99.90
38860;DHT22;24609;48.316;16.174;2023-11-21T05:25:41;4.10;99.90
38860;DHT22;24609;48.316;16.174;2023-11-21T05:28:07;4.10;99.90
38860;DHT22;24609;48.316;16.174;2023-11-21T05:30:32;4.20;99.90
38860;DHT22;24609;48.316;16.174;2023-11-21T05:32:58;4.30;99.90
38860;DHT22;24609;48.316;16.174;2023-11-21T05:35:24;4.40;99.90
38860;DHT22;24609;48.316;16.174;2023-11-21T05:37:49;4.40;99.90
38860;DHT22;24609;48.316;16.174;2023-11-21T05:40:15;4.40;99.90
38860;DHT22;24609;48.316;16.174;2023-11-21T05:42:41;4.40;99.90
38860;DHT22;24609;48.316;16.174;2023-11-21T05:45:07;4.30;99.90
38860;DHT22;24609;48.316;16.174;2023-11-21T05:47:40;4.30;99.90
38860;DHT22;24609;48.316;16.174;2023-11-21T05:50:10;4.40;99.90
38860;DHT22;24609;48.316;16.174;2023-11-21T05:52:38;4.50;99.90
38860;DHT22;24609;48.316;16.174;2023-11-21T05:55:05;4.50;99.90
38860;DHT22;24609;48.316;16.174;2023-11-21T05:57:38;4.70;99.90
38860;DHT22;24609;48.316;16.174;2023-11-21T06:00:07;4.70;99.90
38860;DHT22;24609;48.316;16.174;2023-11-21T06:02:51;4.70;99.90
38860;DHT22;24609;48.316;16.174;2023-11-21T06:05:23;4.70;99.90
38860;DHT22;24609;48.316;16.174;2023-11-21T06:07:50;4.80;99.90
38860;DHT22;24609;48.316;16.174;2023-11-21T06:10:16;4.90;99.90
38860;DHT22;24609;48.316;16.174;2023-11-21T06:12:43;4.80;99.90
38860;DHT22;24609;48.316;16.174;2023-11-21T06:15:10;4.80;99.90
38860;DHT22;24609;48.316;16.174;2023-11-21T06:17:39;4.80;99.90
38860;DHT22;24609;48.316;16.174;2023-11-21T06:20:09;4.80;99.90
38860;DHT22;24609;48.316;16.174;2023-11-21T06:22:37;4.90;99.90
38860;DHT22;24609;48.316;16.174;2023-11-21T06:25:03;4.90;99.90
38860;DHT22;24609;48.316;16.174;2023-11-21T06:27:49;5.00;99.90
38860;DHT22;24609;48.316;16.174;2023-11-21T06:30:15;5.10;99.90
38860;DHT22;24609;48.316;16.174;2023-11-21T06:32:42;5.20;99.90
38860;DHT22;24609;48.316;16.174;2023-11-21T06:35:11;5.30;99.90
38860;DHT22;24609;48.316;16.174;2023-11-21T06:37:37;5.30;99.90
38860;DHT22;24609;48.316;16.174;2023-11-21T06:40:03;5.40;99.90
38860;DHT22;24609;48.316;16.174;2023-11-21T06:42:30;5.40;99.90
38860;DHT22;24609;48.316;16.174;2023-11-21T06:44:56;5.40;99.90
38860;DHT22;24609;48.316;16.174;2023-11-21T06:47:23;5.40;99.90
38860;DHT22;24609;48.316;16.174;2023-11-21T06:49:54;5.40;99.90
38860;DHT22;24609;48.316;16.174;2023-11-21T06:52:20;5.40;99.90
38860;DHT22;24609;48.316;16.174;2023-11-21T06:54:47;5.40;99.90
38860;DHT22;24609;48.316;16.174;2023-11-21T06:57:15;5.50;99.90
38860;DHT22;24609;48.316;16.174;2023-11-21T06:59:41;5.60;99.90
38860;DHT22;24609;48.316;16.174;2023-11-21T07:02:07;5.70;99.90
38860;DHT22;24609;48.316;16.174;2023-11-21T07:04:33;5.90;99.90
38860;DHT22;24609;48.316;16.174;2023-11-21T07:06:59;6.10;99.90
38860;DHT22;24609;48.316;16.174;2023-11-21T07:09:25;6.20;99.90
38860;DHT22;24609;48.316;16.174;2023-11-21T07:11:54;6.40;99.90
38860;DHT22;24609;48.316;16.174;2023-11-21T07:14:20;6.50;99.90
38860;DHT22;24609;48.316;16.174;2023-11-21T07:16:47;6.70;99.90
38860;DHT22;24609;48.316;16.174;2023-11-21T07:19:13;6.90;99.90
38860;DHT22;24609;48.316;16.174;2023-11-21T07:21:39;7.00;99.90
38860;DHT22;24609;48.316;16.174;2023-11-21T07:24:06;7.20;99.90
38860;DHT22;24609;48.316;16.174;2023-11-21T07:26:33;7.60;99.90
38860;DHT22;24609;48.316;16.174;2023-11-21T07:28:59;7.90;66.20
38860;DHT22;24609;48.316;16.174;2023-11-21T07:31:25;8.60;20.70
38860;DHT22;24609;48.316;16.174;2023-11-21T07:33:52;9.00;1.00
38860;DHT22;24609;48.316;16.174;2023-11-21T07:36:18;9.50;1.00
38860;DHT22;24609;48.316;16.174;2023-11-21T07:38:44;9.60;1.00
38860;DHT22;24609;48.316;16.174;2023-11-21T07:41:10;9.80;1.00
38860;DHT22;24609;48.316;16.174;2023-11-21T07:43:36;11.10;1.00
38860;DHT22;24609;48.316;16.174;2023-11-21T07:46:03;11.90;1.00
38860;DHT22;24609;48.316;16.174;2023-11-21T07:48:30;11.70;99.90
38860;DHT22;24609;48.316;16.174;2023-11-21T07:50:56;11.30;99.90
38860;DHT22;24609;48.316;16.174;2023-11-21T07:53:21;10.60;99.90
38860;DHT22;24609;48.316;16.174;2023-11-21T07:55:47;10.60;99.90
38860;DHT22;24609;48.316;16.174;2023-11-21T07:58:13;11.50;1.00
38860;DHT22;24609;48.316;16.174;2023-11-21T08:00:39;11.80;1.00
38860;DHT22;24609;48.316;16.174;2023-11-21T08:03:05;11.90;1.00
38860;DHT22;24609;48.316;16.174;2023-11-21T08:05:31;12.50;1.00
38860;DHT22;24609;48.316;16.174;2023-11-21T08:07:57;12.80;1.00
38860;DHT22;24609;48.316;16.174;2023-11-21T08:10:23;13.00;1.00
38860;DHT22;24609;48.316;16.174;2023-11-21T08:12:49;13.00;1.00
38860;DHT22;24609;48.316;16.174;2023-11-21T08:15:16;12.80;48.40
38860;DHT22;24609;48.316;16.174;2023-11-21T08:17:41;13.10;99.90
38860;DHT22;24609;48.316;16.174;2023-11-21T08:20:07;13.50;99.90
38860;DHT22;24609;48.316;16.174;2023-11-21T08:22:36;13.60;99.90
38860;DHT22;24609;48.316;16.174;2023-11-21T08:25:01;14.60;99.90
38860;DHT22;24609;48.316;16.174;2023-11-21T08:27:29;14.80;99.90
38860;DHT22;24609;48.316;16.174;2023-11-21T08:29:55;13.30;99.90
38860;DHT22;24609;48.316;16.174;2023-11-21T08:32:22;12.40;1.00
38860;DHT22;24609;48.316;16.174;2023-11-21T08:34:47;12.20;1.00
38860;DHT22;24609;48.316;16.174;2023-11-21T08:37:16;12.30;1.00
38860;DHT22;24609;48.316;16.174;2023-11-21T08:39:44;12.20;1.00
38860;DHT22;24609;48.316;16.174;2023-11-21T08:42:10;12.20;99.90
38860;DHT22;24609;48.316;16.174;2023-11-21T08:44:35;11.90;99.90
38860;DHT22;24609;48.316;16.174;2023-11-21T08:47:01;11.20;99.90
38860;DHT22;24609;48.316;16.174;2023-11-21T08:49:27;10.70;99.90
38860;DHT22;24609;48.316;16.174;2023-11-21T08:51:54;10.40;1.00
38860;DHT22;24609;48.316;16.174;2023-11-21T08:54:25;10.20;99.90
38860;DHT22;24609;48.316;16.174;2023-11-21T08:56:52;9.90;99.90
38860;DHT22;24609;48.316;16.174;2023-11-21T08:59:18;9.80;99.90
38860;DHT22;24609;48.316;16.174;2023-11-21T09:01:45;9.70;99.90
38860;DHT22;24609;48.316;16.174;2023-11-21T09:04:12;9.60;99.90
38860;DHT22;24609;48.316;16.174;2023-11-21T09:06:39;9.60;1.00
38860;DHT22;24609;48.316;16.174;2023-11-21T09:09:05;9.40;1.00
38860;DHT22;24609;48.316;16.174;2023-11-21T09:11:32;9.30;99.90
38860;DHT22;24609;48.316;16.174;2023-11-21T09:13:59;9.50;99.90
38860;DHT22;24609;48.316;16.174;2023-11-21T09:16:26;9.60;99.90
38860;DHT22;24609;48.316;16.174;2023-11-21T09:18:51;9.90;99.90
38860;DHT22;24609;48.316;16.174;2023-11-21T09:21:17;10.10;55.00
38860;DHT22;24609;48.316;16.174;2023-11-21T09:23:44;10.30;99.90
38860;DHT22;24609;48.316;16.174;2023-11-21T09:26:11;10.50;99.90
38860;DHT22;24609;48.316;16.174;2023-11-21T09:28:37;10.60;99.90
38860;DHT22;24609;48.316;16.174;2023-11-21T09:31:08;10.60;99.90
38860;DHT22;24609;48.316;16.174;2023-11-21T09:33:35;10.50;1.00
38860;DHT22;24609;48.316;16.174;2023-11-21T09:36:00;10.60;99.90
38860;DHT22;24609;48.316;16.174;2023-11-21T09:38:26;10.80;43.20
38860;DHT22;24609;48.316;16.174;2023-11-21T09:40:54;10.90;1.00
38860;DHT22;24609;48.316;16.174;2023-11-21T09:43:20;10.90;99.90
38860;DHT22;24609;48.316;16.174;2023-11-21T09:45:51;10.60;1.00
38860;DHT22;24609;48.316;16.174;2023-11-21T09:48:20;10.60;1.00
38860;DHT22;24609;48.316;16.174;2023-11-21T09:50:47;11.20;1.00
38860;DHT22;24609;48.316;16.174;2023-11-21T09:53:13;11.80;99.90
38860;DHT22;24609;48.316;16.174;2023-11-21T09:55:42;12.20;1.00
38860;DHT22;24609;48.316;16.174;2023-11-21T09:58:09;12.50;1.00
38860;DHT22;24609;48.316;16.174;2023-11-21T10:00:44;12.70;99.90
38860;DHT22;24609;48.316;16.174;2023-11-21T10:03:11;12.60;99.90
38860;DHT22;24609;48.316;16.174;2023-11-21T10:05:37;12.80;45.00
38860;DHT22;24609;48.316;16.174;2023-11-21T10:08:10;13.20;1.00
38860;DHT22;24609;48.316;16.174;2023-11-21T10:10:37;13.50;63.90
38860;DHT22;24609;48.316;16.174;2023-11-21T10:13:06;14.00;99.90
38860;DHT22;24609;48.316;16.174;2023-11-21T10:15:35;14.00;99.90
38860;DHT22;24609;48.316;16.174;2023-11-21T10:18:03;14.10;1.00
38860;DHT22;24609;48.316;16.174;2023-11-21T10:20:30;14.30;1.00
38860;DHT22;24609;48.316;16.174;2023-11-21T10:22:56;14.60;1.00
38860;DHT22;24609;48.316;16.174;2023-11-21T10:25:24;14.40;99.90
38860;DHT22;24609;48.316;16.174;2023-11-21T10:27:58;14.60;99.90
38860;DHT22;24609;48.316;16.174;2023-11-21T10:30:38;14.70;99.90
38860;DHT22;24609;48.316;16.174;2023-11-21T10:33:06;14.00;99.90
38860;DHT22;24609;48.316;16.174;2023-11-21T10:35:48;13.30;1.00
38860;DHT22;24609;48.316;16.174;2023-11-21T10:38:23;13.20;1.00
38860;DHT22;24609;48.316;16.174;2023-11-21T10:40:50;13.00;1.00
38860;DHT22;24609;48.316;16.174;2023-11-21T10:43:16;13.10;99.90
38860;DHT22;24609;48.316;16.174;2023-11-21T10:45:42;13.40;1.00
38860;DHT22;24609;48.316;16.174;2023-11-21T10:48:15;14.20;99.90
38860;DHT22;24609;48.316;16.174;2023-11-21T10:50:41;17.30;1.00
38860;DHT22;24609;48.316;16.174;2023-11-21T10:53:07;19.90;99.90
38860;DHT22;24609;48.316;16.174;2023-11-21T10:55:34;21.00;1.00
38860;DHT22;24609;48.316;16.174;2023-11-21T10:58:02;21.80;1.00
38860;DHT22;24609;48.316;16.174;2023-11-21T11:00:30;21.40;1.00
38860;DHT22;24609;48.316;16.174;2023-11-21T11:02:56;21.70;1.00
38860;DHT22;24609;48.316;16.174;2023-11-21T11:05:28;20.80;1.00
38860;DHT22;24609;48.316;16.174;2023-11-21T11:08:09;23.20;1.00
38860;DHT22;24609;48.316;16.174;2023-11-21T11:10:37;21.10;1.00
38860;DHT22;24609;48.316;16.174;2023-11-21T11:13:04;20.50;1.00
38860;DHT22;24609;48.316;16.174;2023-11-21T11:15:32;20.00;1.00
38860;DHT22;24609;48.316;16.174;2023-11-21T11:17:59;17.20;1.00
38860;DHT22;24609;48.316;16.174;2023-11-21T11:20:34;15.90;1.00
38860;DHT22;24609;48.316;16.174;2023-11-21T11:35:15;15.90;1.00
38860;DHT22;24609;48.316;16.174;2023-11-21T11:37:43;15.50;1.00
38860;DHT22;24609;48.316;16.174;2023-11-21T11:40:11;15.20;1.00
38860;DHT22;24609;48.316;16.174;2023-11-21T11:42:37;14.90;1.00
38860;DHT22;24609;48.316;16.174;2023-11-21T11:45:17;14.30;1.00
38860;DHT22;24609;48.316;16.174;2023-11-21T11:47:43;13.50;99.90
38860;DHT22;24609;48.316;16.174;2023-11-21T11:50:11;13.10;1.00
38860;DHT22;24609;48.316;16.174;2023-11-21T11:53:14;12.90;99.90
38860;DHT22;24609;48.316;16.174;2023-11-21T11:55:40;12.50;99.90
38860;DHT22;24609;48.316;16.174;2023-11-21T11:58:07;12.20;99.90
38860;DHT22;24609;48.316;16.174;2023-11-21T12:00:36;12.10;99.90
38860;DHT22;24609;48.316;16.174;2023-11-21T12:03:07;11.60;99.90
38860;DHT22;24609;48.316;16.174;2023-11-21T12:05:34;11.60;99.90
38860;DHT22;24609;48.316;16.174;2023-11-21T12:08:10;11.80;1.00
38860;DHT22;24609;48.316;16.174;2023-11-21T12:10:39;11.50;99.90
38860;DHT22;24609;48.316;16.174;2023-11-21T12:13:11;11.50;99.90
38860;DHT22;24609;48.316;16.174;2023-11-21T12:15:38;11.30;39.70
38860;DHT22;24609;48.316;16.174;2023-11-21T12:18:05;11.20;1.00
38860;DHT22;24609;48.316;16.174;2023-11-21T12:20:31;11.10;99.90
38860;DHT22;24609;48.316;16.174;2023-11-21T12:23:01;11.10;1.00
38860;DHT22;24609;48.316;16.174;2023-11-21T12:25:28;11.20;1.00
38860;DHT22;24609;48.316;16.174;2023-11-21T12:27:56;11.20;99.90
38860;DHT22;24609;48.316;16.174;2023-11-21T12:30:27;11.20;99.90
38860;DHT22;24609;48.316;16.174;2023-11-21T12:32:57;11.20;1.00
38860;DHT22;24609;48.316;16.174;2023-11-21T12:35:28;11.10;1.00
38860;DHT22;24609;48.316;16.174;2023-11-21T12:37:57;11.00;99.90
38860;DHT22;24609;48.316;16.174;2023-11-21T12:40:23;10.90;99.90
38860;DHT22;24609;48.316;16.174;2023-11-21T12:42:53;10.90;99.90
38860;DHT22;24609;48.316;16.174;2023-11-21T12:45:24;10.70;99.90
38860;DHT22;24609;48.316;16.174;2023-11-21T12:47:59;10.70;99.90
38860;DHT22;24609;48.316;16.174;2023-11-21T12:50:27;10.50;1.00
38860;DHT22;24609;48.316;16.174;2023-11-21T12:53:19;10.50;99.90
38860;DHT22;24609;48.316;16.174;2023-11-21T12:55:45;10.50;99.90
38860;DHT22;24609;48.316;16.174;2023-11-21T12:58:15;10.50;99.90
38860;DHT22;24609;48.316;16.174;2023-11-21T13:00:46;10.60;99.90
38860;DHT22;24609;48.316;16.174;2023-11-21T13:03:14;10.60;99.90
38860;DHT22;24609;48.316;16.174;2023-11-21T13:05:46;10.60;1.00
38860;DHT22;24609;48.316;16.174;2023-11-21T13:08:16;10.70;1.00
38860;DHT22;24609;48.316;16.174;2023-11-21T13:10:45;10.80;1.00
38860;DHT22;24609;48.316;16.174;2023-11-21T13:13:13;10.90;99.90
38860;DHT22;24609;48.316;16.174;2023-11-21T13:15:55;11.10;99.90
38860;DHT22;24609;48.316;16.174;2023-11-21T13:18:22;11.10;82.30
38860;DHT22;24609;48.316;16.174;2023-11-21T13:20:49;11.00;99.90
38860;DHT22;24609;48.316;16.174;2023-11-21T13:23:15;11.00;1.00
38860;DHT22;24609;48.316;16.174;2023-11-21T13:25:42;10.80;1.00
38860;DHT22;24609;48.316;16.174;2023-11-21T13:28:11;10.70;89.10
38860;DHT22;24609;48.316;16.174;2023-11-21T13:30:38;10.70;99.90
38860;DHT22;24609;48.316;16.174;2023-11-21T13:33:06;10.70;1.00
38860;DHT22;24609;48.316;16.174;2023-11-21T13:35:37;10.60;99.90
38860;DHT22;24609;48.316;16.174;2023-11-21T13:38:09;10.60;99.90
38860;DHT22;24609;48.316;16.174;2023-11-21T13:40:37;10.60;1.00
38860;DHT22;24609;48.316;16.174;2023-11-21T13:43:12;10.70;1.00
38860;DHT22;24609;48.316;16.174;2023-11-21T13:45:39;10.70;1.00
38860;DHT22;24609;48.316;16.174;2023-11-21T13:48:06;10.60;1.00
38860;DHT22;24609;48.316;16.174;2023-11-21T13:50:36;10.50;86.30
38860;DHT22;24609;48.316;16.174;2023-11-21T13:53:03;10.30;99.90
38860;DHT22;24609;48.316;16.174;2023-11-21T13:55:53;10.20;99.90
38860;DHT22;24609;48.316;16.174;2023-11-21T13:58:24;9.90;99.90
38860;DHT22;24609;48.316;16.174;2023-11-21T14:01:00;9.70;99.90
38860;DHT22;24609;48.316;16.174;2023-11-21T14:03:31;9.50;1.00
38860;DHT22;24609;48.316;16.174;2023-11-21T14:06:10;9.60;50.10
38860;DHT22;24609;48.316;16.174;2023-11-21T14:08:41;9.50;99.90
38860;DHT22;24609;48.316;16.174;2023-11-21T14:11:07;9.60;99.90
38860;DHT22;24609;48.316;16.174;2023-11-21T14:13:33;9.60;99.90
38860;DHT22;24609;48.316;16.174;2023-11-21T14:15:59;9.40;99.90
38860;DHT22;24609;48.316;16.174;2023-11-21T14:18:26;9.30;99.90
38860;DHT22;24609;48.316;16.174;2023-11-21T14:21:16;9.30;99.90
38860;DHT22;24609;48.316;16.174;2023-11-21T14:23:42;9.20;99.90
38860;DHT22;24609;48.316;16.174;2023-11-21T14:26:08;9.20;99.90
38860;DHT22;24609;48.316;16.174;2023-11-21T14:28:34;9.20;99.90
38860;DHT22;24609;48.316;16.174;2023-11-21T14:31:01;9.10;99.90
38860;DHT22;24609;48.316;16.174;2023-11-21T14:33:28;9.00;99.90
38860;DHT22;24609;48.316;16.174;2023-11-21T14:35:54;9.00;99.90
38860;DHT22;24609;48.316;16.174;2023-11-21T14:38:20;9.00;99.90
38860;DHT22;24609;48.316;16.174;2023-11-21T14:40:46;8.90;99.90
38860;DHT22;24609;48.316;16.174;2023-11-21T14:43:12;9.00;99.90
38860;DHT22;24609;48.316;16.174;2023-11-21T14:45:38;8.90;99.90
38860;DHT22;24609;48.316;16.174;2023-11-21T14:48:04;8.90;99.90
38860;DHT22;24609;48.316;16.174;2023-11-21T14:50:30;9.00;99.90
38860;DHT22;24609;48.316;16.174;2023-11-21T14:53:09;8.90;99.90
38860;DHT22;24609;48.316;16.174;2023-11-21T14:55:35;8.80;99.90
38860;DHT22;24609;48.316;16.174;2023-11-21T14:58:19;8.80;99.90
38860;DHT22;24609;48.316;16.174;2023-11-21T15:00:55;8.60;99.90
38860;DHT22;24609;48.316;16.174;2023-11-21T15:03:27;8.40;99.90
38860;DHT22;24609;48.316;16.174;2023-11-21T15:05:59;8.20;99.90
38860;DHT22;24609;48.316;16.174;2023-11-21T15:08:44;8.10;99.90
38860;DHT22;24609;48.316;16.174;2023-11-21T15:11:11;8.10;99.90
38860;DHT22;24609;48.316;16.174;2023-11-21T15:13:41;8.10;99.90
38860;DHT22;24609;48.316;16.174;2023-11-21T15:16:08;8.10;99.90
38860;DHT22;24609;48.316;16.174;2023-11-21T15:18:37;8.20;99.90
38860;DHT22;24609;48.316;16.174;2023-11-21T15:21:03;8.20;99.90
38860;DHT22;24609;48.316;16.174;2023-11-21T15:23:29;8.20;99.90
38860;DHT22;24609;48.316;16.174;2023-11-21T15:25:57;8.20;99.90
38860;DHT22;24609;48.316;16.174;2023-11-21T15:28:23;8.20;99.90
38860;DHT22;24609;48.316;16.174;2023-11-21T15:30:50;8.20;99.90
38860;DHT22;24609;48.316;16.174;2023-11-21T15:33:17;8.30;99.90
38860;DHT22;24609;48.316;16.174;2023-11-21T15:35:43;8.20;99.90
38860;DHT22;24609;48.316;16.174;2023-11-21T15:38:09;8.10;99.90
38860;DHT22;24609;48.316;16.174;2023-11-21T15:40:35;8.00;99.90
38860;DHT22;24609;48.316;16.174;2023-11-21T15:43:01;8.00;99.90